Latest Coastal Weather Observations for Lihou Reef Lighthouse

IDQ60701

Issued at 7:55 am EST Wednesday 1 October 2014 (issued every 10 minutes, with the page automatically refreshed every 10 minutes)

About coastal observations | Map of coastal stations | Coastal observations for QLD | Marine services | Other Formats
Station Details ID: 200880 Name: LIHOU REEF LIGHTHOUSE Lat: -17.13 Lon: 152.15 Height: 0.0 m
Data from the previous 72 hours. | See also: Recent months for locations in Queensland
Date/Time
EST
Temp

°C
Wind Pressure Rain
since 9am
mm
Weather Cloud Vis
km
Sea
Height
m
Swell
Dir
 
Speed
knots
Gust
knots
hPa Trend Height
m
Period
s
Dir
01/07:30am 23.3 SE 17 20 1016.9 - - - - - - - - -
01/07:00am 23.1 SE 17 19 1016.6 - - - - - - - - -
01/06:30am 22.6 SE 20 23 1016.0 - - - - - - - - -
01/06:00am 22.9 SE 15 20 1015.8 - - - - - - - - -
01/05:30am 23.4 SE 18 21 1015.6 - - - - - - - - -
01/05:00am 23.2 SE 17 20 1015.4 - - - - - - - - -
01/04:30am 21.8 SE 10 14 1015.4 - - - - - - - - -
01/04:00am 22.7 SE 10 14 1015.3 - - - - - - - - -
01/03:30am 23.1 SE 17 20 1014.7 - - - - - - - - -
01/03:00am 22.9 SE 15 18 1014.7 - - - - - - - - -
01/02:30am 22.6 SE 18 20 1014.9 - - - - - - - - -
01/02:00am 23.0 SE 16 18 1015.1 - - - - - - - - -
01/01:30am 22.8 SE 17 20 1015.3 - - - - - - - - -
01/01:00am 22.3 SE 17 22 1015.8 - - - - - - - - -
01/12:54am 22.2 SE 16 22 1015.8 - - - - - - - - -
01/12:30am 21.9 SE 7 12 1016.2 - - - - - - - - -
01/12:00am 22.0 SSE 14 16 1016.6 - - - - - - - - -
 
Date/Time
EST
Temp

°C
Wind Pressure Rain
since 9am
mm
Weather Cloud Vis
km
Sea
Height
m
Swell
Dir
 
Speed
knots
Gust
knots
hPa Trend Height
m
Period
s
Dir
30/11:30pm 22.3 SE 13 16 1016.9 - - - - - - - - -
30/11:00pm 22.6 ESE 16 21 1017.0 - - - - - - - - -
30/10:30pm 23.5 SE 18 23 1017.0 - - - - - - - - -
30/10:00pm 23.3 SE 17 20 1017.0 - - - - - - - - -
30/09:30pm 23.5 SE 16 19 1017.1 - - - - - - - - -
30/09:00pm 23.5 SE 18 21 1017.0 - - - - - - - - -
30/08:30pm 23.7 SE 15 17 1017.1 - - - - - - - - -
30/08:00pm 23.4 SE 15 18 1017.0 - - - - - - - - -
30/07:30pm 23.5 SE 17 20 1016.8 - - - - - - - - -
30/07:00pm 23.4 SE 17 21 1016.3 - - - - - - - - -
30/06:30pm 23.5 SE 18 22 1016.0 - - - - - - - - -
30/06:00pm 23.4 SE 18 21 1015.7 - - - - - - - - -
30/05:30pm 23.5 SE 19 22 1015.3 - - - - - - - - -
30/05:00pm 23.4 SSE 19 22 1015.1 - - - - - - - - -
30/04:30pm 23.5 SE 18 21 1014.8 - - - - - - - - -
30/04:00pm 23.6 SE 17 21 1014.7 - - - - - - - - -
30/03:30pm 23.5 SE 18 20 1014.5 - - - - - - - - -
30/03:00pm 23.6 SE 17 20 1014.4 - - - - - - - - -
30/02:30pm 23.5 SE 16 19 1014.4 - - - - - - - - -
30/02:00pm 23.5 SE 16 20 1014.6 - - - - - - - - -
30/01:30pm 23.4 SE 14 17 1014.9 - - - - - - - - -
30/01:00pm 23.5 SE 15 17 1015.1 - - - - - - - - -
30/12:30pm 23.5 SE 15 19 1015.6 - - - - - - - - -
30/12:00pm 23.6 SE 16 19 1016.1 - - - - - - - - -
30/11:30am 23.6 SE 16 20 1016.5 - - - - - - - - -
30/11:00am 23.7 SE 17 20 1017.1 - - - - - - - - -
30/10:30am 23.9 SE 14 18 1017.7 - - - - - - - - -
30/10:00am 23.6 ESE 16 19 1017.8 - - - - - - - - -
30/09:30am 23.8 ESE 16 19 1018.0 - - - - - - - - -
30/09:00am 23.8 ESE 16 20 1018.2 - - - - - - - - -
30/08:30am 23.4 ESE 16 18 1018.1 - - - - - - - - -
30/08:00am 22.8 SE 16 21 1018.1 - - - - - - - - -
30/07:30am 22.4 ESE 20 24 1017.7 - - - - - - - - -
30/07:00am 22.6 SE 15 18 1017.2 - - - - - - - - -
30/06:30am 22.5 SE 15 18 1017.0 - - - - - - - - -
30/06:00am 22.5 SE 19 23 1016.6 - - - - - - - - -
30/05:30am 23.0 SE 14 19 1016.3 - - - - - - - - -
30/05:00am 23.0 SE 12 13 1016.2 - - - - - - - - -
30/04:30am 23.3 E 10 13 1015.8 - - - - - - - - -
30/04:00am 23.1 SE 15 18 1015.6 - - - - - - - - -
30/03:30am 23.0 SE 18 23 1015.5 - - - - - - - - -
30/03:00am 23.2 SE 18 23 1015.6 - - - - - - - - -
30/02:30am 23.2 SE 20 23 1015.6 - - - - - - - - -
30/02:00am 23.0 SE 19 23 1015.6 - - - - - - - - -
30/01:30am 22.5 ESE 19 23 1015.9 - - - - - - - - -
30/01:00am 21.5 SE 11 15 1016.4 - - - - - - - - -
30/12:30am 21.0 ESE 23 27 1016.4 - - - - - - - - -
30/12:09am 21.6 ESE 23 26 1016.4 - - - - - - - - -
30/12:00am 22.6 SSE 10 17 1016.6 - - - - - - - - -
 
Date/Time
EST
Temp

°C
Wind Pressure Rain
since 9am
mm
Weather Cloud Vis
km
Sea
Height
m
Swell
Dir
 
Speed
knots
Gust
knots
hPa Trend Height
m
Period
s
Dir
29/11:30pm 22.5 S 12 15 1016.8 - - - - - - - - -
29/11:00pm 23.1 ESE 15 19 1017.0 - - - - - - - - -
29/10:30pm 23.9 SE 15 18 1016.9 - - - - - - - - -
29/10:00pm 23.7 ESE 11 13 1016.9 - - - - - - - - -
29/09:30pm 23.8 SE 20 24 1016.9 - - - - - - - - -
29/09:00pm 23.6 SE 19 23 1016.8 - - - - - - - - -
29/08:30pm 23.6 ESE 20 23 1016.6 - - - - - - - - -
29/08:00pm 23.4 ESE 19 24 1016.2 - - - - - - - - -
29/07:30pm 23.6 ESE 16 19 1015.9 - - - - - - - - -
29/07:00pm 23.4 ESE 15 18 1015.7 - - - - - - - - -
29/06:30pm 23.3 SE 14 17 1015.4 - - - - - - - - -
29/06:00pm 23.4 SE 14 16 1015.2 - - - - - - - - -
29/05:30pm 23.6 SE 15 18 1014.9 - - - - - - - - -
29/05:00pm 23.9 SE 13 16 1014.8 - - - - - - - - -
29/04:30pm 23.6 SE 15 20 1014.6 - - - - - - - - -
29/04:00pm 23.5 SE 18 20 1014.3 - - - - - - - - -
29/03:30pm 23.4 SE 18 21 1014.4 - - - - - - - - -
29/03:00pm 23.4 SE 18 23 1014.2 - - - - - - - - -
29/02:30pm 23.4 SE 19 23 1014.3 - - - - - - - - -
29/02:00pm 23.3 SE 20 23 1014.5 - - - - - - - - -
29/01:30pm 23.4 SE 18 22 1014.8 - - - - - - - - -
29/01:00pm 23.4 SE 19 23 1015.0 - - - - - - - - -
29/12:30pm 23.5 SE 17 23 1015.3 - - - - - - - - -
29/12:00pm 23.4 SE 18 22 1015.5 - - - - - - - - -
29/11:30am 23.4 SE 17 21 1015.9 - - - - - - - - -
29/11:00am 23.4 SE 18 21 1016.2 - - - - - - - - -
29/10:30am 23.5 SE 17 21 1016.6 - - - - - - - - -
29/10:00am 23.7 SSE 20 24 1016.6 - - - - - - - - -
29/09:30am 23.6 SE 21 24 1016.7 - - - - - - - - -
29/09:00am 23.4 SE 23 27 1016.6 - - - - - - - - -
29/08:30am 23.7 SE 22 26 1016.8 - - - - - - - - -
29/08:00am 23.6 SE 24 28 1016.5 - - - - - - - - -
29/07:30am 23.6 SE 24 29 1016.3 - - - - - - - - -
29/07:00am 23.3 SE 24 28 1015.8 - - - - - - - - -
29/06:30am 23.4 SE 25 30 1015.4 - - - - - - - - -
29/06:00am 23.2 SE 24 30 1015.2 - - - - - - - - -
29/05:30am 23.1 SE 25 29 1014.9 - - - - - - - - -
29/05:00am 23.1 SE 24 29 1014.7 - - - - - - - - -
29/04:30am 23.1 SE 25 29 1014.3 - - - - - - - - -
29/04:00am 23.1 SE 25 29 1014.2 - - - - - - - - -
29/03:30am 23.2 SE 25 29 1014.4 - - - - - - - - -
29/03:00am 23.1 SE 23 29 1014.4 - - - - - - - - -
29/02:30am 23.4 SE 22 26 1014.8 - - - - - - - - -
29/02:00am 23.3 SE 22 27 1015.1 - - - - - - - - -
29/01:30am 23.3 SE 24 27 1015.4 - - - - - - - - -
29/01:00am 23.1 SE 24 27 1015.5 - - - - - - - - -
29/12:30am 23.2 SE 23 27 1015.7 - - - - - - - - -
29/12:00am 23.3 SE 23 29 1016.0 - - - - - - - - -
 
Date/Time
EST
Temp

°C
Wind Pressure Rain
since 9am
mm
Weather Cloud Vis
km
Sea
Height
m
Swell
Dir
 
Speed
knots
Gust
knots
hPa Trend Height
m
Period
s
Dir
28/11:30pm 23.3 SE 22 26 1016.3 - - - - - - - - -
28/11:00pm 23.4 SE 22 27 1016.5 - - - - - - - - -
28/10:30pm 23.3 SE 22 26 1016.6 - - - - - - - - -
28/10:00pm 23.3 SE 21 25 1016.5 - - - - - - - - -
28/09:30pm 23.4 SE 22 25 1016.5 - - - - - - - - -
28/09:00pm 23.5 SE 22 26 1016.5 - - - - - - - - -
28/08:30pm 23.4 SE 22 28 1016.3 - - - - - - - - -
28/08:00pm 23.6 SE 22 27 1016.0 - - - - - - - - -
28/07:30pm 23.6 SE 20 25 1015.8 - - - - - - - - -
28/07:00pm 23.6 SE 20 24 1015.5 - - - - - - - - -
28/06:30pm 23.8 SE 21 25 1015.4 - - - - - - - - -
28/06:00pm 23.7 SSE 21 26 1014.9 - - - - - - - - -
28/05:30pm 23.8 SE 21 25 1014.6 - - - - - - - - -
28/05:00pm 23.9 SE 21 25 1014.4 - - - - - - - - -
28/04:30pm 24.0 SE 20 24 1014.2 - - - - - - - - -
28/04:00pm 23.9 SE 19 23 1014.2 - - - - - - - - -
28/03:30pm 24.0 SE 21 24 1014.1 - - - - - - - - -
28/03:00pm 24.0 SE 19 22 1014.1 - - - - - - - - -
28/02:30pm 23.9 SE 18 22 1014.5 - - - - - - - - -
28/02:00pm 24.0 SE 18 22 1014.6 - - - - - - - - -
28/01:30pm 23.9 SE 18 21 1014.8 - - - - - - - - -
28/01:00pm 23.9 SSE 17 21 1015.1 - - - - - - - - -
28/12:30pm 23.9 SE 17 20 1015.5 - - - - - - - - -
28/12:00pm 23.9 SE 16 18 1015.9 - - - - - - - - -
28/11:30am 24.0 SE 16 20 1016.4 - - - - - - - - -
28/11:00am 23.9 SE 17 20 1016.8 - - - - - - - - -
28/10:30am 24.0 SE 17 21 1017.0 - - - - - - - - -
28/10:00am 23.8 SE 17 21 1016.9 - - - - - - - - -
28/09:30am 24.0 SE 17 21 1016.9 - - - - - - - - -
28/09:00am 24.0 SE 17 20 1017.1 - - - - - - - - -
28/08:30am 24.0 SSE 16 20 1017.3 - - - - - - - - -
28/08:00am 24.0 SE 17 20 1017.3 - - - - - - - - -

Other Formats:

Comma delimited format used in spreadsheet applications
http://www.bom.gov.au/fwo/IDQ60701/IDQ60701.94293.axf

JavaScript Object Notation format (JSON) in row-major order
http://www.bom.gov.au/fwo/IDQ60701/IDQ60701.94293.json